Blue Oak Ranch Reserve, California Weather observations

Data are for 10 minute period ending at time listed.
 Day   Time   Solar   Ave.   Ave.  Ave.  Vector  Max.   Baro.   Total    
  of    of     Rad.   Air    Rel.  Wind   Wind   Wind  Press.  Precip.   
Year   Day            Temp.  Hum.  Speed  Dir.   Gust                    
2014   (PST)  Kw/m2    F      %     mph   deg.    mph    mb.     in.     
-------------------------------------------------------------------------
 273   11:30   0.76   69.5    57    6.4   241    11.6   947.0    0.00 
 273   11:40   0.77   69.3    58    6.7   239    11.7   947.0    0.00 
 273   11:50   0.77   69.6    55    7.2   251    12.1   947.0    0.00 
 273   12:00   0.77   70.2    53    6.8   236    13.7   947.0    0.00 
 273   12:10   0.77   70.5    52    6.0   246    11.3   946.9    0.00 
 273   12:20   0.77   71.3    50    6.4   244    13.0   946.9    0.00 
 273   12:30   0.77   71.8    48    6.4   233    11.9   946.9    0.00 
 273   12:40   0.76   71.0    48    7.1   238    13.5   946.8    0.00 
 273   12:50   0.73   71.0    47    6.7   235    10.7   946.6    0.00 
 273   13:00   0.75   72.3    46    6.4   242    11.5   946.4    0.00 
 273   13:10   0.73   72.2    45    7.3   256    11.3   946.2    0.00 
 273   13:20   0.72   71.4    46    7.1   250    11.4   946.1    0.00 
 273   13:30   0.71   71.5    42    5.9   240    11.2   946.0    0.00 
 273   13:40   0.70   72.5    40    6.4   240    12.3   945.8    0.00 
 273   13:50   0.68   72.9    37    6.4   235    11.0   945.7    0.00 
 273   14:00   0.66   73.0    36    7.1   248    13.5   945.6    0.00 
 273   14:10   0.64   73.1    35    6.3   283     9.9   945.6    0.00 
 273   14:20   0.62   72.7    35    6.5   296    11.1   945.5    0.00 
 273   14:30   0.60   73.0    30    6.8   288    11.5   945.4    0.00 
 273   14:40   0.57   73.4    30    5.3   300    10.6   945.2    0.00 
 273   14:50   0.54   74.5    29    5.8   292    11.3   945.2    0.00 
 273   15:00   0.52   73.5    32    7.1   295    11.4   945.1    0.00 
 273   15:10   0.49   73.9    34    7.1   279    12.4   945.1    0.00 
 273   15:20   0.46   73.1    36    7.6   290    12.2   944.9    0.00 
 273   15:30   0.43   73.0    37    6.2   283    11.0   944.8    0.00 
 273   15:40   0.40   73.2    37    7.2   283    11.7   944.8    0.00 
 273   15:50   0.37   72.3    39    8.7   286    12.2   944.8    0.00 
 273   16:00   0.34   72.0    41    7.9   282    12.0   944.9    0.00 
 273   16:10   0.31   72.3    40    7.7   276    11.3   944.9    0.00 
 273   16:20   0.27   71.6    42    6.9   277    11.0   944.9    0.00 
 273   16:30   0.24   70.9    44    6.8   277    10.6   944.8    0.00 
 273   16:40   0.21   70.3    45    6.3   275     9.1   944.7    0.00 
 273   16:50   0.18   70.1    46    5.9   271     9.5   944.7    0.00 
 273   17:00   0.15   69.5    47    6.1   278     8.7   944.7    0.00 
 273   17:10   0.12   69.0    48    5.1   283     7.5   944.8    0.00 
 273   17:20   0.08   68.8    49    2.9   275     6.1   944.6    0.00 
 273   17:30   0.06   68.5    52    3.1   268     5.0   944.5    0.00 
 273   17:40   0.01   66.5    55    3.0   290     4.3   944.5    0.00 
 273   17:50   0.01   64.5    59    2.8   297     5.6   944.5    0.00 
 273   18:00   0.01   63.1    62    1.4   277     2.9   944.3    0.00 
 273   18:10   0.00   60.9    65    1.2    27     2.1   944.1    0.00 
 273   18:20   0.00   59.8    68    0.7   290     2.3   944.0    0.00 
 273   18:30   0.00   59.0    69    0.1   300     1.1   944.0    0.00 
 273   18:40   0.00   58.1    70    0.6    84     1.3   944.0    0.00 
 273   18:50   0.00   57.4    71    0.6   291     1.3   944.1    0.00 
 273   19:00   0.00   56.9    72    0.1   173     0.7   944.2    0.00 
 273   19:10   0.00   56.3    73    0.3    43     1.1   944.3    0.00 
 273   19:20   0.00   55.9    74    0.3    42     1.5   944.4    0.00 
 273   19:30   0.00   55.2    75    1.5    44     2.3   944.5    0.00 
 273   19:40   0.00   54.7    77    0.7   288     1.9   944.6    0.00 
 273   19:50   0.00   54.8    78    0.5   318     1.2   944.6    0.00 
 273   20:00   0.00   54.7    79    0.5    16     2.2   944.6    0.00 
 273   20:10   0.00   54.5    79    1.2   294     3.1   944.6    0.00 
 273   20:20   0.00   54.2    80    0.1   277     1.1   944.6    0.00 
 273   20:30   0.00   54.1    82    0.6    51     2.2   944.6    0.00 
 273   20:40   0.00   54.2    84    0.3    35     1.2   944.7    0.00 
 273   20:50   0.00   54.5    84    0.5    45     1.6   944.7    0.00 
 273   21:00   0.00   54.1    84    0.9    48     2.6   944.6    0.00 
 273   21:10   0.00   53.7    85    0.3    31     1.3   944.5    0.00 
 273   21:20   0.00   53.5    86    0.3    32     1.4   944.5    0.00 
 273   21:30   0.00   53.8    86    0.6   338     2.2   944.5    0.00 
 273   21:40   0.00   53.2    86    0.3   303     2.6   944.5    0.00 
 273   21:50   0.00   52.9    88    0.8    46     1.9   944.5    0.00 
 273   22:00   0.00   52.7    88    1.0     6     2.3   944.5    0.00 
 273   22:10   0.00   52.7    89    0.6   287     3.0   944.5    0.00 
 273   22:20   0.00   52.8    89    0.7    32     2.0   944.5    0.00 
 273   22:30   0.00   52.6    89    0.7    80     3.1   944.5    0.00 
 273   22:40   0.00   52.2    89    1.0    81     2.6   944.5    0.00 
 273   22:50   0.00   52.1    90    1.3    56     2.5   944.5    0.00 
 273   23:00   0.00   52.0    90    1.0    71     2.4   944.5    0.00 
 273   23:10   0.00   52.0    90    0.8    69     1.6   944.5    0.00 
 273   23:20   0.00   52.0    90    0.9    34     2.6   944.5    0.00 
 273   23:30   0.00   52.3    91    0.6   338     1.8   944.5    0.00 
 273   23:40   0.00   52.2    90    0.5    30     2.2   944.4    0.00 
 273   23:50   0.00   52.2    90    0.7   279     2.3   944.5    0.00 
 274    0:00   0.00   52.0    91    1.4   307     5.7   944.5    0.00 
 274    0:10   0.00   51.8    91    1.6   353     3.3   944.5    0.00 
 274    0:20   0.00   52.1    90    1.3   298     2.1   944.6    0.00 
 274    0:30   0.00   52.2    90    0.5    10     1.7   944.6    0.00 
 274    0:40   0.00   52.0    88    0.7    56     2.2   944.6    0.00 
 274    0:50   0.00   51.8    89    0.4   343     2.2   944.6    0.00 
 274    1:00   0.00   51.9    88    0.5   322     1.5   944.6    0.00 
 274    1:10   0.00   51.2    88    1.3   311     3.1   944.5    0.00 
 274    1:20   0.00   51.1    88    0.8    39     2.5   944.5    0.00 
 274    1:30   0.00   51.2    86    0.5   321     1.8   944.5    0.00 
 274    1:40   0.00   51.2    86    1.4   292     3.8   944.5    0.00 
 274    1:50   0.00   49.7    87    1.7   313     4.3   944.5    0.00 
 274    2:00   0.00   50.4    85    1.1    60     2.6   944.4    0.00 
 274    2:10   0.00   50.2    83    1.2   307     4.7   944.4    0.00 
 274    2:20   0.00   50.0    82    0.4   308     2.0   944.3    0.00 
 274    2:30   0.00   50.2    80    0.3   318     1.5   944.2    0.00 
 274    2:40   0.00   49.5    81    2.2   340     5.0   944.1    0.00 
 274    2:50   0.00   49.5    78    1.5   350     3.6   944.2    0.00 
 274    3:00   0.00   49.9    73    1.3    53     3.5   944.2    0.00 
 274    3:10   0.00   50.6    68    2.2    54     4.5   944.3    0.00 
 274    3:20   0.00   52.1    63    1.6     2     3.9   944.3    0.00 
 274    3:30   0.00   51.8    65    1.4    73     4.0   944.3    0.00 
 274    3:40   0.00   50.2    70    1.2   275     3.9   944.3    0.00 
 274    3:50   0.00   51.9    64    2.1   291     4.5   944.3    0.00 
 274    4:00   0.00   51.9    63    0.9    51     5.6   944.3    0.00 
 274    4:10   0.00   52.3    61    1.0   222     3.8   944.4    0.00 
 274    4:20   0.00   53.1    60    0.5   159     2.1   944.4    0.00 
 274    4:30   0.00   52.4    61    0.4   342     1.8   944.5    0.00 
 274    4:40   0.00   51.5    63    1.6   266     3.1   944.5    0.00 
 274    4:50   0.00   53.6    58    0.7   171     2.9   944.5    0.00 
 274    5:00   0.00   52.4    62    1.3   263     3.4   944.6    0.00 
 274    5:10   0.00   52.4    62    1.2   216     2.9   944.7    0.00 
 274    5:20   0.00   51.3    64    1.8   298     3.7   944.9    0.00 
 274    5:30   0.00   51.4    65    2.2    57     3.4   945.0    0.00 
 274    5:40   0.00   51.2    66    2.0    44     3.7   945.1    0.00 
 274    5:50   0.00   49.7    71    2.0   307     4.3   945.1    0.00 
 274    6:00   0.01   49.8    71    1.5   287     3.4   945.2    0.00 
 274    6:10   0.01   52.2    59    3.9    74    14.1   945.1    0.00 
 274    6:20   0.01   57.0    45    5.1    36    13.9   945.3    0.00 
 274    6:30   0.01   61.6    36    8.9    47    19.3   945.2    0.00 
 274    6:40   0.03   62.7    34   10.5    41    20.0   945.2    0.00 
 274    6:50   0.03   63.0    33    8.5    42    14.1   945.1    0.00 
 274    7:00   0.11   63.7    32    8.1    32    20.2   945.0    0.00 
 274    7:10   0.16   65.2    30    7.6    38    17.2   945.0    0.00 
 274    7:20   0.19   66.6    29    7.6    44    17.2   945.0    0.00 
 274    7:30   0.23   67.6    28    5.6    64    14.6   945.1    0.00 
 274    7:40   0.26   68.5    27    5.6    57    15.4   945.4    0.00 
 274    7:50   0.29   69.1    27    4.3    46    13.4   945.6    0.00 
 274    8:00   0.32   69.6    27    5.7    44    13.8   945.9    0.00 
 274    8:10   0.36   69.5    27    6.6    56    15.2   946.2    0.00 
 274    8:20   0.39   69.4    26    6.4    71    16.6   946.3    0.00 
 274    8:30   0.42   70.3    26    7.8    67    16.7   946.4    0.00 
 274    8:40   0.45   70.6    25    6.6    61    13.8   946.5    0.00 
 274    8:50   0.48   71.2    24    5.6    89    13.4   946.4    0.00 
 274    9:00   0.51   71.7    24    4.1   111    10.4   946.6    0.00 
 274    9:10   0.54   73.3    23    3.2   109     6.4   946.7    0.00 
 274    9:20   0.56   74.1    23    3.0    95     7.2   946.7    0.00 
 274    9:30   0.59   75.1    22    4.8    60    12.0   946.6    0.00 
 274    9:40   0.61   76.1    22    5.5    59    13.2   946.6    0.00 
 274    9:50   0.64   76.6    21    3.7    58    12.3   946.5    0.00 
 274   10:00   0.66   76.8    22    4.3   231    13.7   946.5    0.00 
 274   10:10   0.68   75.8    27    5.4   263     9.9   946.5    0.00 
 274   10:20   0.70   76.3    26    4.8   247     8.8   946.4    0.00 
 274   10:30   0.72   77.5    22    3.2   299     9.5   946.3    0.00 
 274   10:40   0.73   77.7    19    7.3    27    14.1   946.1    0.00 
 274   10:50   0.74   78.5    18    5.0    32    10.5   946.1    0.00 
 274   11:00   0.76   79.6    17    4.8   335    11.8   946.0    0.00 
 274   11:10   0.77   80.1    20    3.8   224     9.8   945.9    0.00 
 274   11:20   0.77   78.1    24    7.4   227    14.5   945.9    0.00 

Return to Blue Oak Ranch Reserve graphs page.


Western Regional Climate Center,wrcc@dri.edu